createdAt,value
2022-10-02T00:01:17.183Z,12.20
2022-10-02T00:05:25.379Z,12.20
2022-10-02T00:09:37.805Z,12.20
2022-10-02T00:13:43.570Z,12.20
2022-10-02T00:17:47.387Z,12.20
2022-10-02T00:22:04.098Z,12.20
2022-10-02T00:26:26.961Z,12.20
2022-10-02T00:30:28.693Z,12.20
2022-10-02T00:34:41.169Z,12.20
2022-10-02T00:39:31.845Z,12.20
2022-10-02T00:44:15.310Z,12.10
2022-10-02T00:48:40.833Z,12.20
2022-10-02T00:53:02.962Z,12.20
2022-10-02T00:57:31.194Z,12.20
2022-10-02T01:01:59.778Z,12.20
2022-10-02T01:06:01.925Z,12.20
2022-10-02T01:10:04.065Z,12.20
2022-10-02T01:14:05.897Z,12.20
2022-10-02T01:18:09.256Z,12.20
2022-10-02T01:22:30.977Z,12.20
2022-10-02T01:26:33.047Z,12.10
2022-10-02T01:30:35.933Z,12.10
2022-10-02T01:34:37.746Z,12.10
2022-10-02T01:38:40.102Z,12.00
2022-10-02T01:42:41.894Z,12.00
2022-10-02T01:47:01.313Z,12.10
2022-10-02T01:51:57.867Z,12.00
2022-10-02T01:56:22.603Z,12.00
2022-10-02T02:00:25.514Z,12.00
2022-10-02T02:04:50.024Z,12.00
2022-10-02T02:09:12.067Z,12.00
2022-10-02T02:14:12.050Z,12.00
2022-10-02T02:18:47.032Z,12.00
2022-10-02T02:22:51.865Z,12.00
2022-10-02T02:26:55.850Z,12.00
2022-10-02T02:30:57.671Z,12.00
2022-10-02T02:35:06.599Z,12.10
2022-10-02T02:39:12.147Z,12.10
2022-10-02T02:43:29.556Z,12.20
2022-10-02T02:48:02.627Z,12.10
2022-10-02T02:52:06.923Z,12.10
2022-10-02T02:56:10.397Z,12.10
2022-10-02T03:00:14.803Z,12.20
2022-10-02T03:04:16.592Z,12.20
2022-10-02T03:08:31.775Z,12.30
2022-10-02T03:13:17.079Z,12.40
2022-10-02T03:17:53.900Z,12.40
2022-10-02T03:22:12.982Z,12.50
2022-10-02T03:26:20.789Z,12.60
2022-10-02T03:30:24.296Z,12.70
2022-10-02T03:34:26.272Z,12.80
2022-10-02T03:38:28.145Z,12.80
2022-10-02T03:42:34.443Z,12.90
2022-10-02T03:46:36.563Z,12.90
2022-10-02T03:50:38.646Z,12.90
2022-10-02T03:54:40.479Z,12.90
2022-10-02T03:58:45.968Z,12.80
2022-10-02T04:02:58.694Z,12.80
2022-10-02T04:07:05.801Z,12.60
2022-10-02T04:11:16.937Z,12.60
2022-10-02T04:15:51.120Z,12.50
2022-10-02T04:20:28.769Z,12.40
2022-10-02T04:24:34.308Z,12.30
2022-10-02T04:28:40.276Z,12.30
2022-10-02T04:32:42.191Z,12.20
2022-10-02T04:37:42.168Z,12.20
2022-10-02T04:42:06.872Z,12.10
2022-10-02T04:46:28.597Z,12.10
2022-10-02T04:50:54.156Z,12.10
2022-10-02T04:55:28.046Z,12.10
2022-10-02T04:59:55.212Z,12.10
2022-10-02T05:04:25.472Z,12.00
2022-10-02T05:09:01.621Z,12.00
2022-10-02T05:13:27.317Z,12.00
2022-10-02T05:18:00.042Z,12.00
2022-10-02T05:22:28.611Z,12.00
2022-10-02T05:26:37.921Z,12.00
2022-10-02T05:31:05.655Z,12.10
2022-10-02T05:35:26.116Z,12.10
2022-10-02T05:39:32.119Z,12.20
2022-10-02T05:43:49.790Z,12.30
2022-10-02T05:47:51.694Z,12.50
2022-10-02T05:52:04.861Z,12.60
2022-10-02T05:56:37.544Z,12.80
2022-10-02T06:00:46.812Z,13.30
2022-10-02T06:05:40.232Z,13.40
2022-10-02T06:10:47.956Z,13.50
2022-10-02T06:15:24.880Z,13.80
2022-10-02T06:20:03.585Z,13.90
2022-10-02T06:24:11.884Z,13.70
2022-10-02T06:28:38.443Z,13.80
2022-10-02T06:33:01.686Z,14.20
2022-10-02T06:37:10.523Z,14.80
2022-10-02T06:41:47.299Z,15.40
2022-10-02T06:46:37.365Z,15.70
2022-10-02T06:50:55.799Z,16.30
2022-10-02T06:55:23.575Z,16.60
2022-10-02T06:59:35.640Z,17.00
2022-10-02T07:04:04.195Z,17.30
2022-10-02T07:08:41.560Z,17.50
2022-10-02T07:13:03.272Z,17.60
2022-10-02T07:17:11.528Z,17.80
2022-10-02T07:21:34.993Z,17.90
2022-10-02T07:26:02.267Z,17.90
2022-10-02T07:30:12.746Z,17.90
2022-10-02T07:34:59.287Z,18.20
2022-10-02T07:39:31.508Z,18.30
2022-10-02T07:43:53.273Z,18.60
2022-10-02T07:48:38.340Z,18.70
2022-10-02T07:53:01.375Z,18.60
2022-10-02T07:57:25.982Z,18.80
2022-10-02T08:01:32.524Z,18.80
2022-10-02T08:05:44.773Z,19.00
2022-10-02T08:09:49.728Z,19.30
2022-10-02T08:14:01.029Z,19.30
2022-10-02T08:18:47.666Z,19.70
2022-10-02T08:22:55.977Z,19.80
2022-10-02T08:27:34.116Z,19.70
2022-10-02T08:31:36.657Z,19.80
2022-10-02T08:36:16.664Z,20.00
2022-10-02T08:41:12.236Z,20.00
2022-10-02T08:45:41.120Z,20.10
2022-10-02T08:50:37.036Z,20.20
2022-10-02T08:55:07.930Z,20.30
2022-10-02T08:59:42.212Z,20.20
2022-10-02T09:04:47.976Z,20.40
2022-10-02T09:09:23.148Z,20.30
2022-10-02T09:14:45.042Z,20.20
2022-10-02T09:19:20.538Z,20.00
2022-10-02T09:23:56.926Z,19.90
2022-10-02T09:28:21.707Z,19.70
2022-10-02T09:32:58.013Z,19.70
2022-10-02T09:37:54.256Z,20.00
2022-10-02T09:42:19.608Z,20.40
2022-10-02T09:47:04.711Z,20.30
2022-10-02T09:51:55.853Z,19.90
2022-10-02T09:56:56.716Z,19.10
2022-10-02T10:01:13.200Z,19.00
2022-10-02T10:05:53.527Z,18.80
2022-10-02T10:10:32.796Z,18.50
2022-10-02T10:15:07.368Z,18.30
2022-10-02T10:19:53.179Z,18.20
2022-10-02T10:24:47.028Z,18.30
2022-10-02T10:29:32.432Z,18.60
2022-10-02T10:34:28.781Z,18.80
2022-10-02T10:38:54.516Z,19.10
2022-10-02T10:43:20.613Z,19.40
2022-10-02T10:47:38.009Z,19.20
2022-10-02T10:51:48.132Z,19.40
2022-10-02T10:56:33.685Z,19.50
2022-10-02T11:01:55.105Z,19.50
2022-10-02T11:06:46.292Z,19.60
2022-10-02T11:11:12.410Z,19.30
2022-10-02T11:16:36.423Z,19.10
2022-10-02T11:21:41.869Z,19.20
2022-10-02T11:26:15.806Z,19.10
2022-10-02T11:30:38.244Z,19.10
2022-10-02T11:35:17.311Z,19.20
2022-10-02T11:40:18.438Z,19.20
2022-10-02T11:44:34.674Z,19.10
2022-10-02T11:49:07.567Z,19.20
2022-10-02T11:53:34.650Z,19.10
2022-10-02T11:58:05.059Z,18.80
2022-10-02T12:02:54.011Z,18.70
2022-10-02T12:07:24.065Z,18.80
2022-10-02T12:12:12.839Z,18.60
2022-10-02T12:22:44.551Z,18.80
2022-10-02T12:27:13.980Z,18.50
2022-10-02T12:31:32.306Z,18.30
2022-10-02T12:35:36.555Z,18.40
2022-10-02T12:40:10.306Z,18.60
2022-10-02T12:44:59.950Z,18.70
2022-10-02T12:49:30.463Z,18.50
2022-10-02T12:53:57.395Z,18.50
2022-10-02T12:58:25.489Z,18.30
2022-10-02T13:03:00.476Z,18.30
2022-10-02T13:07:35.399Z,18.50
2022-10-02T13:12:20.671Z,18.50
2022-10-02T13:16:38.221Z,18.40
2022-10-02T13:20:58.585Z,18.30
2022-10-02T13:25:47.462Z,18.30
2022-10-02T13:30:23.058Z,18.30
2022-10-02T13:34:40.973Z,18.30
2022-10-02T13:38:54.517Z,18.40
2022-10-02T13:43:37.810Z,18.30
2022-10-02T13:47:56.624Z,18.10
2022-10-02T13:52:19.676Z,17.90
2022-10-02T13:56:59.685Z,17.80
2022-10-02T14:01:40.503Z,17.70
2022-10-02T14:06:56.309Z,17.90
2022-10-02T14:17:29.208Z,18.20
2022-10-02T14:21:53.515Z,18.10
2022-10-02T14:26:43.814Z,18.10
2022-10-02T14:42:18.637Z,17.80
2022-10-02T14:46:55.685Z,17.80
2022-10-02T14:51:29.150Z,17.60
2022-10-02T14:57:04.202Z,17.60
2022-10-02T15:01:23.521Z,17.70
2022-10-02T15:06:03.621Z,17.50
2022-10-02T15:10:22.544Z,17.40
2022-10-02T15:14:36.635Z,17.30
2022-10-02T15:18:49.693Z,17.20
2022-10-02T15:23:05.587Z,17.10
2022-10-02T15:49:07.045Z,16.70
2022-10-02T16:04:05.212Z,16.40
2022-10-02T16:08:34.750Z,16.30
2022-10-02T16:13:31.102Z,16.20
2022-10-02T16:18:19.010Z,16.10
2022-10-02T16:22:42.390Z,16.00
2022-10-02T16:28:01.218Z,15.90
2022-10-02T16:32:37.543Z,15.70
2022-10-02T17:53:57.906Z,14.80
2022-10-02T17:58:55.832Z,14.70
2022-10-02T18:08:30.560Z,14.60
2022-10-02T18:13:50.328Z,14.50
2022-10-02T18:40:16.058Z,14.30
2022-10-02T18:45:02.177Z,14.20
2022-10-02T18:49:49.338Z,14.10
2022-10-02T18:54:46.878Z,13.90
2022-10-02T18:59:09.273Z,13.80
2022-10-02T19:08:30.490Z,13.70
2022-10-02T19:12:37.881Z,13.60
2022-10-02T19:17:04.418Z,13.60
2022-10-02T19:21:21.090Z,13.50
2022-10-02T19:25:28.423Z,13.50
2022-10-02T19:29:55.539Z,13.40
2022-10-02T19:34:21.860Z,13.40
2022-10-02T19:38:51.262Z,13.30
2022-10-02T19:43:29.822Z,13.30
2022-10-02T19:48:30.484Z,13.30
2022-10-02T19:52:58.971Z,13.30
2022-10-02T19:57:28.825Z,13.30
2022-10-02T20:02:15.226Z,13.30
2022-10-02T20:06:21.256Z,13.20
2022-10-02T20:10:46.180Z,13.20
2022-10-02T20:15:01.059Z,13.10
2022-10-02T20:19:09.279Z,13.10
2022-10-02T20:23:28.567Z,13.10
2022-10-02T20:28:04.565Z,13.20
2022-10-02T20:32:49.341Z,13.30
2022-10-02T20:37:12.067Z,13.40
2022-10-02T20:41:30.655Z,13.40
2022-10-02T20:46:04.015Z,13.50
2022-10-02T20:50:36.751Z,13.40
2022-10-02T20:55:31.334Z,13.30
2022-10-02T21:00:12.724Z,13.20
2022-10-02T21:05:01.548Z,13.10
2022-10-02T21:09:35.227Z,13.10
2022-10-02T21:13:53.107Z,13.00
2022-10-02T21:18:37.399Z,13.00
2022-10-02T21:23:26.019Z,13.00
2022-10-02T21:27:53.927Z,13.00
2022-10-02T21:32:21.760Z,12.90
2022-10-02T21:36:36.302Z,12.90
2022-10-02T21:41:16.010Z,12.90
2022-10-02T21:45:57.449Z,13.00
2022-10-02T21:50:12.187Z,12.90
2022-10-02T21:54:56.201Z,13.00
2022-10-02T22:00:02.859Z,13.00
2022-10-02T22:04:19.281Z,13.00
2022-10-02T22:09:10.482Z,12.90
2022-10-02T22:13:25.448Z,12.80
2022-10-02T22:17:56.165Z,12.70
2022-10-02T22:22:13.362Z,12.70
2022-10-02T22:26:56.072Z,12.70
2022-10-02T22:30:57.914Z,12.60
2022-10-02T22:35:23.491Z,12.60
2022-10-02T22:39:25.277Z,12.60
2022-10-02T22:44:01.519Z,12.60
2022-10-02T22:48:09.920Z,12.60
2022-10-02T22:52:27.005Z,12.60
2022-10-02T22:56:48.561Z,12.60
2022-10-02T23:01:13.887Z,12.60
2022-10-02T23:05:33.455Z,12.50
2022-10-02T23:09:37.590Z,12.40
2022-10-02T23:14:27.478Z,12.30
2022-10-02T23:18:54.410Z,12.30
2022-10-02T23:23:28.397Z,12.20
2022-10-02T23:27:54.663Z,12.20
2022-10-02T23:32:20.218Z,12.20
2022-10-02T23:36:33.131Z,12.20
2022-10-02T23:41:35.313Z,12.20
2022-10-02T23:45:41.777Z,12.20
2022-10-02T23:49:56.390Z,12.20
2022-10-02T23:54:15.129Z,12.10
2022-10-02T23:58:57.955Z,12.20
